sensor_id;sensor_type;location;lat;lon;timestamp;P1;durP1;ratioP1;P2;durP2;ratioP2
2313;SDS011;42279;51.388;7.000;2022-12-18T00:01:37;22.05;;;13.75;;
2313;SDS011;42279;51.388;7.000;2022-12-18T00:04:05;15.48;;;11.95;;
2313;SDS011;42279;51.388;7.000;2022-12-18T00:06:31;18.85;;;12.55;;
2313;SDS011;42279;51.388;7.000;2022-12-18T00:08:58;21.70;;;13.27;;
2313;SDS011;42279;51.388;7.000;2022-12-18T00:11:26;18.50;;;11.27;;
2313;SDS011;42279;51.388;7.000;2022-12-18T00:13:54;16.48;;;10.80;;
2313;SDS011;42279;51.388;7.000;2022-12-18T00:16:21;17.67;;;11.15;;
2313;SDS011;42279;51.388;7.000;2022-12-18T00:18:51;13.20;;;10.30;;
2313;SDS011;42279;51.388;7.000;2022-12-18T00:21:18;20.15;;;10.52;;
2313;SDS011;42279;51.388;7.000;2022-12-18T00:23:44;18.92;;;11.15;;
2313;SDS011;42279;51.388;7.000;2022-12-18T00:26:12;17.60;;;10.32;;
2313;SDS011;42279;51.388;7.000;2022-12-18T00:28:40;13.63;;;10.20;;
2313;SDS011;42279;51.388;7.000;2022-12-18T00:31:07;10.95;;;9.15;;
2313;SDS011;42279;51.388;7.000;2022-12-18T00:33:33;18.95;;;9.27;;
2313;SDS011;42279;51.388;7.000;2022-12-18T00:36:00;13.50;;;8.57;;
2313;SDS011;42279;51.388;7.000;2022-12-18T00:38:26;16.80;;;9.13;;
2313;SDS011;42279;51.388;7.000;2022-12-18T00:40:52;18.48;;;9.25;;
2313;SDS011;42279;51.388;7.000;2022-12-18T00:43:18;16.95;;;9.82;;
2313;SDS011;42279;51.388;7.000;2022-12-18T00:45:45;13.80;;;7.60;;
2313;SDS011;42279;51.388;7.000;2022-12-18T00:48:11;9.38;;;7.25;;
2313;SDS011;42279;51.388;7.000;2022-12-18T00:50:37;9.95;;;6.53;;
2313;SDS011;42279;51.388;7.000;2022-12-18T00:53:03;6.10;;;5.53;;
2313;SDS011;42279;51.388;7.000;2022-12-18T00:55:29;19.80;;;7.45;;
2313;SDS011;42279;51.388;7.000;2022-12-18T00:57:55;12.17;;;8.13;;
2313;SDS011;42279;51.388;7.000;2022-12-18T01:00:21;10.10;;;6.17;;
2313;SDS011;42279;51.388;7.000;2022-12-18T01:02:47;12.35;;;7.63;;
2313;SDS011;42279;51.388;7.000;2022-12-18T01:05:13;6.80;;;5.93;;
2313;SDS011;42279;51.388;7.000;2022-12-18T01:07:39;13.13;;;7.10;;
2313;SDS011;42279;51.388;7.000;2022-12-18T01:10:06;7.72;;;6.93;;
2313;SDS011;42279;51.388;7.000;2022-12-18T01:12:32;6.30;;;5.60;;
2313;SDS011;42279;51.388;7.000;2022-12-18T01:14:58;9.25;;;6.18;;
2313;SDS011;42279;51.388;7.000;2022-12-18T01:17:24;8.30;;;5.33;;
2313;SDS011;42279;51.388;7.000;2022-12-18T01:19:50;5.07;;;4.63;;
2313;SDS011;42279;51.388;7.000;2022-12-18T01:22:16;6.90;;;6.03;;
2313;SDS011;42279;51.388;7.000;2022-12-18T01:24:42;9.50;;;5.17;;
2313;SDS011;42279;51.388;7.000;2022-12-18T01:27:08;6.90;;;6.20;;
2313;SDS011;42279;51.388;7.000;2022-12-18T01:29:34;10.10;;;6.60;;
2313;SDS011;42279;51.388;7.000;2022-12-18T01:32:00;5.97;;;5.47;;
2313;SDS011;42279;51.388;7.000;2022-12-18T01:34:26;5.80;;;5.30;;
2313;SDS011;42279;51.388;7.000;2022-12-18T01:36:52;11.90;;;5.17;;
2313;SDS011;42279;51.388;7.000;2022-12-18T01:39:18;7.70;;;5.18;;
2313;SDS011;42279;51.388;7.000;2022-12-18T01:41:44;4.97;;;4.47;;
2313;SDS011;42279;51.388;7.000;2022-12-18T01:47:18;6.30;;;5.03;;
2313;SDS011;42279;51.388;7.000;2022-12-18T01:49:45;5.82;;;4.43;;
2313;SDS011;42279;51.388;7.000;2022-12-18T01:52:11;6.00;;;5.00;;
2313;SDS011;42279;51.388;7.000;2022-12-18T01:54:38;4.53;;;4.22;;
2313;SDS011;42279;51.388;7.000;2022-12-18T01:57:04;11.03;;;4.97;;
2313;SDS011;42279;51.388;7.000;2022-12-18T01:59:30;7.28;;;5.00;;
2313;SDS011;42279;51.388;7.000;2022-12-18T02:01:57;6.45;;;5.30;;
2313;SDS011;42279;51.388;7.000;2022-12-18T02:04:24;4.63;;;4.32;;
2313;SDS011;42279;51.388;7.000;2022-12-18T02:07:03;4.70;;;4.10;;
2313;SDS011;42279;51.388;7.000;2022-12-18T02:09:32;3.70;;;3.50;;
2313;SDS011;42279;51.388;7.000;2022-12-18T02:14:41;6.80;;;4.38;;
2313;SDS011;42279;51.388;7.000;2022-12-18T02:17:17;5.03;;;4.53;;
2313;SDS011;42279;51.388;7.000;2022-12-18T02:19:46;5.95;;;5.45;;
2313;SDS011;42279;51.388;7.000;2022-12-18T02:24:49;6.25;;;5.75;;
2313;SDS011;42279;51.388;7.000;2022-12-18T02:27:19;7.50;;;4.80;;
2313;SDS011;42279;51.388;7.000;2022-12-18T02:29:50;4.53;;;4.10;;
2313;SDS011;42279;51.388;7.000;2022-12-18T02:32:18;8.45;;;4.85;;
2313;SDS011;42279;51.388;7.000;2022-12-18T02:34:45;5.50;;;5.10;;
2313;SDS011;42279;51.388;7.000;2022-12-18T02:37:12;5.15;;;4.47;;
2313;SDS011;42279;51.388;7.000;2022-12-18T02:39:41;4.90;;;4.60;;
2313;SDS011;42279;51.388;7.000;2022-12-18T02:42:07;6.05;;;4.82;;
2313;SDS011;42279;51.388;7.000;2022-12-18T02:44:43;10.25;;;6.95;;
2313;SDS011;42279;51.388;7.000;2022-12-18T02:47:10;7.05;;;5.50;;
2313;SDS011;42279;51.388;7.000;2022-12-18T03:00:08;6.80;;;4.80;;
2313;SDS011;42279;51.388;7.000;2022-12-18T03:05:07;7.83;;;4.13;;
2313;SDS011;42279;51.388;7.000;2022-12-18T03:07:41;6.43;;;5.50;;
2313;SDS011;42279;51.388;7.000;2022-12-18T03:10:09;6.95;;;5.50;;
2313;SDS011;42279;51.388;7.000;2022-12-18T03:12:42;5.13;;;4.22;;
2313;SDS011;42279;51.388;7.000;2022-12-18T03:15:10;4.78;;;4.32;;
2313;SDS011;42279;51.388;7.000;2022-12-18T03:17:39;4.43;;;4.10;;
2313;SDS011;42279;51.388;7.000;2022-12-18T03:20:08;6.88;;;6.05;;
2313;SDS011;42279;51.388;7.000;2022-12-18T03:22:35;12.75;;;5.70;;
2313;SDS011;42279;51.388;7.000;2022-12-18T03:25:02;7.00;;;6.03;;
2313;SDS011;42279;51.388;7.000;2022-12-18T03:27:29;5.85;;;5.43;;
2313;SDS011;42279;51.388;7.000;2022-12-18T03:30:07;6.60;;;5.90;;
2313;SDS011;42279;51.388;7.000;2022-12-18T03:35:14;6.03;;;5.10;;
2313;SDS011;42279;51.388;7.000;2022-12-18T03:37:41;9.70;;;6.03;;
2313;SDS011;42279;51.388;7.000;2022-12-18T03:40:07;4.88;;;4.53;;
2313;SDS011;42279;51.388;7.000;2022-12-18T03:45:09;8.68;;;6.30;;
2313;SDS011;42279;51.388;7.000;2022-12-18T03:50:15;7.22;;;5.60;;
2313;SDS011;42279;51.388;7.000;2022-12-18T03:52:48;6.47;;;5.70;;
2313;SDS011;42279;51.388;7.000;2022-12-18T03:55:15;5.72;;;5.22;;
2313;SDS011;42279;51.388;7.000;2022-12-18T03:57:42;6.75;;;5.45;;
2313;SDS011;42279;51.388;7.000;2022-12-18T04:00:13;6.15;;;5.57;;
2313;SDS011;42279;51.388;7.000;2022-12-18T04:02:41;7.20;;;4.43;;
2313;SDS011;42279;51.388;7.000;2022-12-18T04:05:08;5.20;;;4.70;;
2313;SDS011;42279;51.388;7.000;2022-12-18T04:07:36;5.80;;;5.30;;
2313;SDS011;42279;51.388;7.000;2022-12-18T04:10:02;5.07;;;4.68;;
2313;SDS011;42279;51.388;7.000;2022-12-18T04:12:29;6.22;;;5.63;;
2313;SDS011;42279;51.388;7.000;2022-12-18T04:14:55;4.90;;;4.50;;
2313;SDS011;42279;51.388;7.000;2022-12-18T04:17:21;5.70;;;5.30;;
2313;SDS011;42279;51.388;7.000;2022-12-18T04:19:47;7.40;;;4.60;;
2313;SDS011;42279;51.388;7.000;2022-12-18T04:22:13;9.48;;;5.38;;
2313;SDS011;42279;51.388;7.000;2022-12-18T04:24:39;6.67;;;6.10;;
2313;SDS011;42279;51.388;7.000;2022-12-18T04:27:05;8.27;;;5.10;;
2313;SDS011;42279;51.388;7.000;2022-12-18T04:29:31;5.50;;;4.60;;
2313;SDS011;42279;51.388;7.000;2022-12-18T04:31:58;6.05;;;5.28;;
2313;SDS011;42279;51.388;7.000;2022-12-18T04:34:24;6.50;;;4.27;;
2313;SDS011;42279;51.388;7.000;2022-12-18T04:36:50;6.33;;;4.67;;
2313;SDS011;42279;51.388;7.000;2022-12-18T04:39:17;7.67;;;5.73;;
2313;SDS011;42279;51.388;7.000;2022-12-18T04:41:44;6.78;;;5.28;;
2313;SDS011;42279;51.388;7.000;2022-12-18T04:44:10;5.87;;;5.27;;
2313;SDS011;42279;51.388;7.000;2022-12-18T04:46:36;5.03;;;4.53;;
2313;SDS011;42279;51.388;7.000;2022-12-18T04:49:02;6.90;;;5.30;;
2313;SDS011;42279;51.388;7.000;2022-12-18T04:51:28;6.40;;;5.80;;
2313;SDS011;42279;51.388;7.000;2022-12-18T04:53:54;5.13;;;4.03;;
2313;SDS011;42279;51.388;7.000;2022-12-18T04:56:20;5.50;;;4.23;;
2313;SDS011;42279;51.388;7.000;2022-12-18T04:58:46;5.95;;;5.55;;
2313;SDS011;42279;51.388;7.000;2022-12-18T05:01:13;7.73;;;5.80;;
2313;SDS011;42279;51.388;7.000;2022-12-18T05:03:39;6.20;;;4.93;;
2313;SDS011;42279;51.388;7.000;2022-12-18T05:06:05;5.87;;;5.47;;
2313;SDS011;42279;51.388;7.000;2022-12-18T05:08:32;9.00;;;5.53;;
2313;SDS011;42279;51.388;7.000;2022-12-18T05:11:08;5.15;;;4.72;;
2313;SDS011;42279;51.388;7.000;2022-12-18T05:13:35;6.35;;;4.45;;
2313;SDS011;42279;51.388;7.000;2022-12-18T05:16:01;6.97;;;4.57;;
2313;SDS011;42279;51.388;7.000;2022-12-18T05:18:28;5.82;;;5.30;;
2313;SDS011;42279;51.388;7.000;2022-12-18T05:20:54;6.68;;;6.18;;
2313;SDS011;42279;51.388;7.000;2022-12-18T05:23:21;7.63;;;4.85;;
2313;SDS011;42279;51.388;7.000;2022-12-18T05:25:57;5.57;;;4.30;;
2313;SDS011;42279;51.388;7.000;2022-12-18T05:28:24;4.90;;;4.32;;
2313;SDS011;42279;51.388;7.000;2022-12-18T05:30:51;5.32;;;4.70;;
2313;SDS011;42279;51.388;7.000;2022-12-18T05:33:18;4.72;;;4.40;;
2313;SDS011;42279;51.388;7.000;2022-12-18T05:35:49;6.05;;;5.38;;
2313;SDS011;42279;51.388;7.000;2022-12-18T05:38:15;8.77;;;6.07;;
2313;SDS011;42279;51.388;7.000;2022-12-18T05:40:42;6.50;;;5.80;;
2313;SDS011;42279;51.388;7.000;2022-12-18T05:43:08;6.43;;;5.45;;
2313;SDS011;42279;51.388;7.000;2022-12-18T05:45:36;7.32;;;5.13;;
2313;SDS011;42279;51.388;7.000;2022-12-18T05:48:03;9.02;;;6.65;;
2313;SDS011;42279;51.388;7.000;2022-12-18T05:50:29;4.35;;;3.95;;
2313;SDS011;42279;51.388;7.000;2022-12-18T05:52:55;6.63;;;4.40;;
2313;SDS011;42279;51.388;7.000;2022-12-18T05:55:21;4.27;;;4.03;;
2313;SDS011;42279;51.388;7.000;2022-12-18T05:57:47;5.30;;;4.03;;
2313;SDS011;42279;51.388;7.000;2022-12-18T06:00:13;5.00;;;4.40;;
2313;SDS011;42279;51.388;7.000;2022-12-18T06:02:39;6.78;;;5.18;;
2313;SDS011;42279;51.388;7.000;2022-12-18T06:05:05;5.50;;;5.00;;
2313;SDS011;42279;51.388;7.000;2022-12-18T06:07:31;8.02;;;4.13;;
2313;SDS011;42279;51.388;7.000;2022-12-18T06:09:57;5.07;;;4.57;;
2313;SDS011;42279;51.388;7.000;2022-12-18T06:12:23;3.35;;;3.08;;
2313;SDS011;42279;51.388;7.000;2022-12-18T06:14:49;5.82;;;5.07;;
2313;SDS011;42279;51.388;7.000;2022-12-18T06:17:15;8.35;;;5.05;;
2313;SDS011;42279;51.388;7.000;2022-12-18T06:19:41;8.87;;;5.03;;
2313;SDS011;42279;51.388;7.000;2022-12-18T06:22:07;4.63;;;4.13;;
2313;SDS011;42279;51.388;7.000;2022-12-18T06:24:33;15.30;;;8.13;;
2313;SDS011;42279;51.388;7.000;2022-12-18T06:26:59;6.90;;;6.10;;
2313;SDS011;42279;51.388;7.000;2022-12-18T06:29:25;5.75;;;5.05;;
2313;SDS011;42279;51.388;7.000;2022-12-18T06:31:51;4.68;;;4.25;;
2313;SDS011;42279;51.388;7.000;2022-12-18T06:34:17;5.17;;;4.77;;
2313;SDS011;42279;51.388;7.000;2022-12-18T06:36:43;11.20;;;6.28;;
2313;SDS011;42279;51.388;7.000;2022-12-18T06:39:09;5.07;;;4.15;;
2313;SDS011;42279;51.388;7.000;2022-12-18T06:41:35;7.90;;;4.70;;
2313;SDS011;42279;51.388;7.000;2022-12-18T06:44:01;5.53;;;4.93;;
2313;SDS011;42279;51.388;7.000;2022-12-18T06:46:27;7.40;;;5.20;;
2313;SDS011;42279;51.388;7.000;2022-12-18T06:48:53;3.35;;;3.08;;
2313;SDS011;42279;51.388;7.000;2022-12-18T06:51:20;5.50;;;5.20;;
2313;SDS011;42279;51.388;7.000;2022-12-18T06:53:46;3.90;;;3.55;;
2313;SDS011;42279;51.388;7.000;2022-12-18T06:56:12;6.80;;;4.72;;
2313;SDS011;42279;51.388;7.000;2022-12-18T06:58:38;5.82;;;5.32;;
2313;SDS011;42279;51.388;7.000;2022-12-18T07:01:05;7.72;;;6.20;;
2313;SDS011;42279;51.388;7.000;2022-12-18T07:03:32;4.05;;;3.80;;
2313;SDS011;42279;51.388;7.000;2022-12-18T07:05:58;5.32;;;3.55;;
2313;SDS011;42279;51.388;7.000;2022-12-18T07:08:24;9.77;;;6.40;;
2313;SDS011;42279;51.388;7.000;2022-12-18T07:10:50;5.47;;;4.95;;
2313;SDS011;42279;51.388;7.000;2022-12-18T07:13:16;6.60;;;5.40;;
2313;SDS011;42279;51.388;7.000;2022-12-18T07:15:43;5.90;;;5.43;;
2313;SDS011;42279;51.388;7.000;2022-12-18T07:18:09;6.88;;;5.18;;
2313;SDS011;42279;51.388;7.000;2022-12-18T07:20:36;7.10;;;4.95;;
2313;SDS011;42279;51.388;7.000;2022-12-18T07:23:02;5.10;;;4.55;;
2313;SDS011;42279;51.388;7.000;2022-12-18T07:25:28;5.72;;;4.88;;
2313;SDS011;42279;51.388;7.000;2022-12-18T07:27:54;5.13;;;4.63;;
2313;SDS011;42279;51.388;7.000;2022-12-18T07:30:20;7.50;;;6.85;;
2313;SDS011;42279;51.388;7.000;2022-12-18T07:32:46;5.53;;;5.15;;
2313;SDS011;42279;51.388;7.000;2022-12-18T07:35:12;6.22;;;4.63;;
2313;SDS011;42279;51.388;7.000;2022-12-18T07:37:38;4.75;;;4.15;;
2313;SDS011;42279;51.388;7.000;2022-12-18T07:40:04;4.30;;;4.00;;
2313;SDS011;42279;51.388;7.000;2022-12-18T07:42:31;4.75;;;4.35;;
2313;SDS011;42279;51.388;7.000;2022-12-18T07:44:57;5.38;;;4.00;;
2313;SDS011;42279;51.388;7.000;2022-12-18T07:47:23;5.78;;;4.25;;
2313;SDS011;42279;51.388;7.000;2022-12-18T07:49:49;4.38;;;3.97;;
2313;SDS011;42279;51.388;7.000;2022-12-18T07:52:15;13.43;;;7.10;;
2313;SDS011;42279;51.388;7.000;2022-12-18T07:54:44;5.90;;;5.35;;
2313;SDS011;42279;51.388;7.000;2022-12-18T07:57:13;6.78;;;4.97;;
2313;SDS011;42279;51.388;7.000;2022-12-18T07:59:40;5.97;;;5.40;;
2313;SDS011;42279;51.388;7.000;2022-12-18T08:02:06;4.93;;;4.47;;
2313;SDS011;42279;51.388;7.000;2022-12-18T08:04:32;4.47;;;4.00;;
2313;SDS011;42279;51.388;7.000;2022-12-18T08:06:58;7.87;;;5.80;;
2313;SDS011;42279;51.388;7.000;2022-12-18T08:09:24;10.35;;;6.85;;
2313;SDS011;42279;51.388;7.000;2022-12-18T08:11:50;10.57;;;8.63;;
2313;SDS011;42279;51.388;7.000;2022-12-18T08:14:16;6.80;;;6.10;;
2313;SDS011;42279;51.388;7.000;2022-12-18T08:16:42;9.25;;;7.00;;
2313;SDS011;42279;51.388;7.000;2022-12-18T08:19:08;5.32;;;4.47;;
2313;SDS011;42279;51.388;7.000;2022-12-18T08:21:34;4.60;;;4.20;;
2313;SDS011;42279;51.388;7.000;2022-12-18T08:24:00;6.13;;;4.15;;
2313;SDS011;42279;51.388;7.000;2022-12-18T08:26:27;4.93;;;4.43;;
2313;SDS011;42279;51.388;7.000;2022-12-18T08:28:54;3.50;;;3.28;;
2313;SDS011;42279;51.388;7.000;2022-12-18T08:31:20;3.90;;;3.60;;
2313;SDS011;42279;51.388;7.000;2022-12-18T08:33:50;3.00;;;2.80;;
2313;SDS011;42279;51.388;7.000;2022-12-18T08:36:17;4.40;;;3.40;;
2313;SDS011;42279;51.388;7.000;2022-12-18T08:38:44;4.72;;;3.58;;
2313;SDS011;42279;51.388;7.000;2022-12-18T08:41:11;3.72;;;2.97;;
2313;SDS011;42279;51.388;7.000;2022-12-18T08:43:38;2.45;;;2.35;;
2313;SDS011;42279;51.388;7.000;2022-12-18T08:46:23;2.63;;;2.40;;
2313;SDS011;42279;51.388;7.000;2022-12-18T08:48:51;3.90;;;2.28;;
2313;SDS011;42279;51.388;7.000;2022-12-18T08:51:17;3.03;;;2.72;;
2313;SDS011;42279;51.388;7.000;2022-12-18T08:53:43;3.20;;;3.00;;
2313;SDS011;42279;51.388;7.000;2022-12-18T08:56:10;2.92;;;2.47;;
2313;SDS011;42279;51.388;7.000;2022-12-18T08:58:36;2.30;;;2.20;;
2313;SDS011;42279;51.388;7.000;2022-12-18T09:01:03;3.15;;;2.85;;
2313;SDS011;42279;51.388;7.000;2022-12-18T09:03:29;2.80;;;2.60;;
2313;SDS011;42279;51.388;7.000;2022-12-18T09:05:55;1.70;;;1.70;;
2313;SDS011;42279;51.388;7.000;2022-12-18T09:08:21;3.42;;;3.22;;
2313;SDS011;42279;51.388;7.000;2022-12-18T09:10:48;3.30;;;3.07;;
2313;SDS011;42279;51.388;7.000;2022-12-18T09:13:15;6.05;;;2.88;;
2313;SDS011;42279;51.388;7.000;2022-12-18T09:15:44;3.95;;;3.67;;
2313;SDS011;42279;51.388;7.000;2022-12-18T09:18:14;3.78;;;3.13;;
2313;SDS011;42279;51.388;7.000;2022-12-18T09:20:40;2.47;;;2.47;;
2313;SDS011;42279;51.388;7.000;2022-12-18T09:23:06;7.70;;;4.25;;
2313;SDS011;42279;51.388;7.000;2022-12-18T09:25:33;5.25;;;3.25;;
2313;SDS011;42279;51.388;7.000;2022-12-18T09:28:01;2.70;;;2.47;;
2313;SDS011;42279;51.388;7.000;2022-12-18T09:30:27;2.85;;;2.65;;
2313;SDS011;42279;51.388;7.000;2022-12-18T09:32:53;3.17;;;3.03;;
2313;SDS011;42279;51.388;7.000;2022-12-18T09:35:19;2.60;;;2.50;;
2313;SDS011;42279;51.388;7.000;2022-12-18T09:37:45;3.77;;;3.67;;
2313;SDS011;42279;51.388;7.000;2022-12-18T09:40:14;2.67;;;2.58;;
2313;SDS011;42279;51.388;7.000;2022-12-18T09:42:42;2.40;;;2.30;;
2313;SDS011;42279;51.388;7.000;2022-12-18T09:45:12;1.77;;;1.77;;
2313;SDS011;42279;51.388;7.000;2022-12-18T09:47:39;2.33;;;2.22;;
2313;SDS011;42279;51.388;7.000;2022-12-18T09:52:52;2.50;;;2.50;;
2313;SDS011;42279;51.388;7.000;2022-12-18T09:57:59;3.97;;;3.58;;
2313;SDS011;42279;51.388;7.000;2022-12-18T10:00:35;3.78;;;3.58;;
2313;SDS011;42279;51.388;7.000;2022-12-18T10:03:03;2.40;;;2.40;;
2313;SDS011;42279;51.388;7.000;2022-12-18T10:05:36;2.67;;;2.47;;
2313;SDS011;42279;51.388;7.000;2022-12-18T10:08:09;2.95;;;2.85;;
2313;SDS011;42279;51.388;7.000;2022-12-18T10:10:38;3.30;;;3.20;;
2313;SDS011;42279;51.388;7.000;2022-12-18T10:13:28;4.13;;;3.80;;
2313;SDS011;42279;51.388;7.000;2022-12-18T10:16:03;2.42;;;2.33;;
2313;SDS011;42279;51.388;7.000;2022-12-18T10:21:18;3.42;;;3.22;;
2313;SDS011;42279;51.388;7.000;2022-12-18T10:23:51;2.92;;;2.72;;
2313;SDS011;42279;51.388;7.000;2022-12-18T10:26:22;3.05;;;2.95;;
2313;SDS011;42279;51.388;7.000;2022-12-18T10:28:48;2.90;;;2.80;;
2313;SDS011;42279;51.388;7.000;2022-12-18T10:31:21;4.93;;;3.00;;
2313;SDS011;42279;51.388;7.000;2022-12-18T10:33:47;3.20;;;3.00;;
2313;SDS011;42279;51.388;7.000;2022-12-18T10:36:13;2.85;;;2.85;;
2313;SDS011;42279;51.388;7.000;2022-12-18T10:38:39;4.17;;;3.30;;
2313;SDS011;42279;51.388;7.000;2022-12-18T10:43:35;2.93;;;2.83;;
2313;SDS011;42279;51.388;7.000;2022-12-18T10:48:27;3.67;;;3.42;;
2313;SDS011;42279;51.388;7.000;2022-12-18T10:50:54;3.30;;;3.10;;
2313;SDS011;42279;51.388;7.000;2022-12-18T10:53:29;4.20;;;4.00;;
2313;SDS011;42279;51.388;7.000;2022-12-18T10:55:59;4.65;;;4.25;;
2313;SDS011;42279;51.388;7.000;2022-12-18T10:58:26;4.45;;;4.15;;
2313;SDS011;42279;51.388;7.000;2022-12-18T11:01:10;3.70;;;3.50;;
2313;SDS011;42279;51.388;7.000;2022-12-18T11:03:38;2.87;;;2.77;;
2313;SDS011;42279;51.388;7.000;2022-12-18T11:06:14;5.07;;;4.68;;
2313;SDS011;42279;51.388;7.000;2022-12-18T11:08:41;4.40;;;4.20;;
2313;SDS011;42279;51.388;7.000;2022-12-18T11:11:15;4.50;;;4.20;;
2313;SDS011;42279;51.388;7.000;2022-12-18T11:13:50;4.80;;;4.60;;
2313;SDS011;42279;51.388;7.000;2022-12-18T11:16:20;6.33;;;3.80;;
2313;SDS011;42279;51.388;7.000;2022-12-18T11:18:46;4.07;;;3.60;;
2313;SDS011;42279;51.388;7.000;2022-12-18T11:21:12;3.97;;;3.77;;
2313;SDS011;42279;51.388;7.000;2022-12-18T11:23:45;4.13;;;3.93;;
2313;SDS011;42279;51.388;7.000;2022-12-18T11:26:12;4.37;;;4.10;;
2313;SDS011;42279;51.388;7.000;2022-12-18T11:28:52;4.10;;;3.97;;
2313;SDS011;42279;51.388;7.000;2022-12-18T11:31:32;4.03;;;3.83;;
2313;SDS011;42279;51.388;7.000;2022-12-18T11:34:12;4.10;;;3.70;;
2313;SDS011;42279;51.388;7.000;2022-12-18T11:36:46;4.40;;;4.10;;
2313;SDS011;42279;51.388;7.000;2022-12-18T11:39:17;5.10;;;4.60;;
2313;SDS011;42279;51.388;7.000;2022-12-18T11:41:52;4.63;;;4.23;;
2313;SDS011;42279;51.388;7.000;2022-12-18T11:44:36;5.17;;;4.77;;
2313;SDS011;42279;51.388;7.000;2022-12-18T11:49:42;4.50;;;4.20;;
2313;SDS011;42279;51.388;7.000;2022-12-18T11:52:16;4.43;;;4.22;;
2313;SDS011;42279;51.388;7.000;2022-12-18T11:54:42;5.38;;;5.07;;
2313;SDS011;42279;51.388;7.000;2022-12-18T12:02:20;3.88;;;3.65;;
2313;SDS011;42279;51.388;7.000;2022-12-18T12:07:38;3.55;;;3.40;;
2313;SDS011;42279;51.388;7.000;2022-12-18T12:10:12;3.88;;;3.58;;
2313;SDS011;42279;51.388;7.000;2022-12-18T12:15:40;4.50;;;4.10;;
2313;SDS011;42279;51.388;7.000;2022-12-18T12:20:49;4.15;;;3.95;;
2313;SDS011;42279;51.388;7.000;2022-12-18T12:23:23;3.70;;;3.50;;
2313;SDS011;42279;51.388;7.000;2022-12-18T12:34:02;3.80;;;3.70;;
2313;SDS011;42279;51.388;7.000;2022-12-18T12:39:07;3.30;;;3.07;;
2313;SDS011;42279;51.388;7.000;2022-12-18T12:41:35;9.13;;;4.45;;
2313;SDS011;42279;51.388;7.000;2022-12-18T12:44:26;8.02;;;5.07;;
2313;SDS011;42279;51.388;7.000;2022-12-18T12:46:55;4.53;;;4.18;;
2313;SDS011;42279;51.388;7.000;2022-12-18T12:49:21;7.60;;;5.33;;
2313;SDS011;42279;51.388;7.000;2022-12-18T12:51:56;5.53;;;5.00;;
2313;SDS011;42279;51.388;7.000;2022-12-18T12:54:24;4.88;;;4.60;;
2313;SDS011;42279;51.388;7.000;2022-12-18T12:56:57;4.63;;;4.35;;
2313;SDS011;42279;51.388;7.000;2022-12-18T12:59:28;6.18;;;4.50;;
2313;SDS011;42279;51.388;7.000;2022-12-18T13:10:12;5.85;;;5.25;;
2313;SDS011;42279;51.388;7.000;2022-12-18T13:12:22;8.75;;;5.78;;
2313;SDS011;42279;51.388;7.000;2022-12-18T13:15:20;8.52;;;5.80;;
2313;SDS011;42279;51.388;7.000;2022-12-18T13:17:46;6.13;;;5.60;;
2313;SDS011;42279;51.388;7.000;2022-12-18T13:20:12;6.70;;;5.20;;
2313;SDS011;42279;51.388;7.000;2022-12-18T13:43:22;9.73;;;7.13;;
2313;SDS011;42279;51.388;7.000;2022-12-18T13:45:58;6.63;;;6.03;;
2313;SDS011;42279;51.388;7.000;2022-12-18T13:48:25;5.75;;;5.25;;
2313;SDS011;42279;51.388;7.000;2022-12-18T13:50:56;6.43;;;5.18;;
2313;SDS011;42279;51.388;7.000;2022-12-18T14:06:15;8.55;;;6.70;;
2313;SDS011;42279;51.388;7.000;2022-12-18T14:08:42;10.10;;;7.90;;
2313;SDS011;42279;51.388;7.000;2022-12-18T14:11:17;10.03;;;6.93;;
2313;SDS011;42279;51.388;7.000;2022-12-18T14:13:45;13.38;;;7.15;;
2313;SDS011;42279;51.388;7.000;2022-12-18T14:19:04;19.80;;;8.53;;
2313;SDS011;42279;51.388;7.000;2022-12-18T14:21:31;10.13;;;5.90;;
2313;SDS011;42279;51.388;7.000;2022-12-18T14:26:34;12.70;;;7.13;;
2313;SDS011;42279;51.388;7.000;2022-12-18T14:29:01;9.03;;;8.13;;
2313;SDS011;42279;51.388;7.000;2022-12-18T14:31:29;18.08;;;7.85;;
2313;SDS011;42279;51.388;7.000;2022-12-18T14:33:56;9.73;;;6.25;;
2313;SDS011;42279;51.388;7.000;2022-12-18T14:36:23;7.97;;;6.53;;
2313;SDS011;42279;51.388;7.000;2022-12-18T14:38:53;17.00;;;7.63;;
2313;SDS011;42279;51.388;7.000;2022-12-18T14:41:20;11.48;;;7.10;;
2313;SDS011;42279;51.388;7.000;2022-12-18T14:43:47;18.83;;;7.47;;
2313;SDS011;42279;51.388;7.000;2022-12-18T14:48:52;12.63;;;8.05;;
2313;SDS011;42279;51.388;7.000;2022-12-18T14:51:24;8.93;;;6.57;;
2313;SDS011;42279;51.388;7.000;2022-12-18T14:53:54;9.60;;;8.50;;
2313;SDS011;42279;51.388;7.000;2022-12-18T14:56:22;7.60;;;6.80;;
2313;SDS011;42279;51.388;7.000;2022-12-18T14:58:58;9.70;;;6.80;;
2313;SDS011;42279;51.388;7.000;2022-12-18T15:01:29;13.00;;;8.27;;
2313;SDS011;42279;51.388;7.000;2022-12-18T15:03:56;13.85;;;8.50;;
2313;SDS011;42279;51.388;7.000;2022-12-18T15:08:55;18.85;;;10.00;;
2313;SDS011;42279;51.388;7.000;2022-12-18T15:16:53;10.93;;;8.55;;
2313;SDS011;42279;51.388;7.000;2022-12-18T15:19:20;15.40;;;7.70;;
2313;SDS011;42279;51.388;7.000;2022-12-18T15:21:47;25.10;;;11.02;;
2313;SDS011;42279;51.388;7.000;2022-12-18T15:24:18;16.00;;;9.93;;
2313;SDS011;42279;51.388;7.000;2022-12-18T15:26:45;19.33;;;10.07;;
2313;SDS011;42279;51.388;7.000;2022-12-18T15:29:20;8.10;;;6.50;;
2313;SDS011;42279;51.388;7.000;2022-12-18T15:32:10;23.45;;;9.75;;
2313;SDS011;42279;51.388;7.000;2022-12-18T15:34:43;26.95;;;9.63;;
2313;SDS011;42279;51.388;7.000;2022-12-18T15:37:09;13.77;;;8.57;;
2313;SDS011;42279;51.388;7.000;2022-12-18T15:39:35;12.13;;;8.40;;
2313;SDS011;42279;51.388;7.000;2022-12-18T15:42:01;15.70;;;9.90;;
2313;SDS011;42279;51.388;7.000;2022-12-18T15:44:46;12.43;;;9.00;;
2313;SDS011;42279;51.388;7.000;2022-12-18T15:47:13;11.40;;;9.00;;
2313;SDS011;42279;51.388;7.000;2022-12-18T15:49:39;32.67;;;9.32;;
2313;SDS011;42279;51.388;7.000;2022-12-18T15:52:05;12.90;;;9.00;;
2313;SDS011;42279;51.388;7.000;2022-12-18T15:54:31;13.02;;;9.48;;
2313;SDS011;42279;51.388;7.000;2022-12-18T15:57:16;17.48;;;9.23;;
2313;SDS011;42279;51.388;7.000;2022-12-18T15:59:48;16.52;;;8.50;;
2313;SDS011;42279;51.388;7.000;2022-12-18T16:02:16;9.88;;;8.80;;
2313;SDS011;42279;51.388;7.000;2022-12-18T16:04:42;14.98;;;9.70;;
2313;SDS011;42279;51.388;7.000;2022-12-18T16:07:08;18.15;;;9.68;;
2313;SDS011;42279;51.388;7.000;2022-12-18T16:09:35;9.50;;;7.10;;
2313;SDS011;42279;51.388;7.000;2022-12-18T16:12:01;16.35;;;10.88;;
2313;SDS011;42279;51.388;7.000;2022-12-18T16:14:28;17.35;;;9.27;;
2313;SDS011;42279;51.388;7.000;2022-12-18T16:16:56;7.63;;;6.13;;
2313;SDS011;42279;51.388;7.000;2022-12-18T16:19:22;15.48;;;11.05;;
2313;SDS011;42279;51.388;7.000;2022-12-18T16:21:49;20.92;;;10.90;;
2313;SDS011;42279;51.388;7.000;2022-12-18T16:24:28;14.85;;;11.40;;
2313;SDS011;42279;51.388;7.000;2022-12-18T16:26:56;13.68;;;9.00;;
2313;SDS011;42279;51.388;7.000;2022-12-18T16:29:26;14.85;;;9.82;;
2313;SDS011;42279;51.388;7.000;2022-12-18T16:31:56;17.42;;;10.93;;
2313;SDS011;42279;51.388;7.000;2022-12-18T16:34:26;26.88;;;10.20;;
2313;SDS011;42279;51.388;7.000;2022-12-18T16:37:03;12.85;;;10.00;;
2313;SDS011;42279;51.388;7.000;2022-12-18T16:39:29;13.48;;;10.50;;
2313;SDS011;42279;51.388;7.000;2022-12-18T16:41:56;12.95;;;10.43;;
2313;SDS011;42279;51.388;7.000;2022-12-18T16:44:22;8.98;;;6.95;;
2313;SDS011;42279;51.388;7.000;2022-12-18T16:46:48;14.35;;;10.57;;
2313;SDS011;42279;51.388;7.000;2022-12-18T16:49:15;12.82;;;10.43;;
2313;SDS011;42279;51.388;7.000;2022-12-18T16:51:42;16.55;;;11.00;;
2313;SDS011;42279;51.388;7.000;2022-12-18T16:54:08;20.63;;;10.10;;
2313;SDS011;42279;51.388;7.000;2022-12-18T16:56:34;15.23;;;10.60;;
2313;SDS011;42279;51.388;7.000;2022-12-18T16:59:00;16.42;;;10.30;;
2313;SDS011;42279;51.388;7.000;2022-12-18T17:01:27;13.93;;;10.30;;
2313;SDS011;42279;51.388;7.000;2022-12-18T17:04:00;15.80;;;9.85;;
2313;SDS011;42279;51.388;7.000;2022-12-18T17:06:35;17.80;;;10.43;;
2313;SDS011;42279;51.388;7.000;2022-12-18T17:09:05;16.10;;;11.35;;
2313;SDS011;42279;51.388;7.000;2022-12-18T17:11:34;20.25;;;12.70;;